Ovalle, Chile
Current Conditions -  °F | °C
As of 8:00 AM on Friday 31 Oct 2014 (Local Time) from SCSE Reporting Station
Scattered Clouds Scattered Clouds  
Wind Chill: 55°   Ceiling: Unl
Heat Index: 55°   Visibility: 6mi
Dew Point: 50°   Wind: 2mph
Humidity: 82%   Direction: NA
Pressure: 29.97"   Gusts: NA
Location:  30.59°S, 71.2°W
Report Text: SCSE 311200Z VRB02KT 9999 FEW009 SCT250 13/10 Q1015
Loading
Personal Weather Stations






























Interactive Weather Map
Tropical Storm Tracking
New forecast layout! Learn more

10-Day Weather Forecast

Advertisements
Track Severe Weather on mobile